Hickory Grove, Louisiana
Current Conditions -  °F | °C
As of 7:53 PM on Monday 22 Dec 2014 (Local Time) from KESF Reporting Station
Clear Clear  
Wind Chill: 19°   Ceiling: Unl
Heat Index: 19°   Visibility: 10mi
Dew Point: 16°   Wind: 6mph
Humidity: 84%   Direction: 210°SSW
Pressure: 29.65"   Gusts: NA
Location:  31.3606°N, 92.2142°W
Report Text: KESF 230153Z AUTO 21005KT 10SM CLR 19/16 A2965 RMK AO2 SLP038 T01890161
Loading
Personal Weather Stations






























Interactive Weather Map New forecast layout! Learn more

10-Day Weather Forecast

Advertisements
Track Severe Weather on mobile